Blumenthal, Texas
Current Conditions -  °F | °C
As of 9:55 PM on Sunday 23 Nov 2014 (Local Time) from KT82 Reporting Station
Clear Clear  
Wind Chill: 58°   Ceiling: Unl
Heat Index: 58°   Visibility: 10mi
Dew Point: 38°   Wind: 15mph
Humidity: 46%   Direction: 360°N
Pressure: 29.81"   Gusts: 20mph
Location:  30.3069°N, 98.8978°W
Report Text: KT82 240355Z AUTO 36013G17KT 10SM CLR 15/03 A2981 RMK AO2 T01470033
Loading
Personal Weather Stations






























Interactive Weather Map New forecast layout! Learn more

10-Day Weather Forecast

Advertisements
Track Severe Weather on mobile